Time;durP1;ratioP1;P1;durP2;ratioP2;P2;SDS_P1;SDS_P2;PMS_P1;PMS_P2;Temp;Humidity;BMP_temperature;BMP_pressure;BME280_temperature;BME280_humidity;BME280_pressure;Samples;Min_cycle;Max_cycle;Signal;HPM_P1;HPM_P2
2022/08/30 00:01:03;;;;;;;6.63;3.10;;;16.20;99.90;;;;;;5034932;28;20798;-67
2022/08/30 00:03:35;;;;;;;7.80;4.00;;;16.10;99.90;;;;;;5035326;28;20190;-68
2022/08/30 00:06:02;;;;;;;8.63;3.80;;;16.10;99.90;;;;;;5035205;28;20436;-68
2022/08/30 00:08:28;;;;;;;6.10;3.47;;;16.00;99.90;;;;;;5035236;28;20462;-67
2022/08/30 00:10:53;;;;;;;6.60;3.47;;;16.00;99.90;;;;;;5034967;28;20413;-68
2022/08/30 00:13:20;;;;;;;13.23;3.37;;;16.00;99.90;;;;;;5034679;28;20201;-67
2022/08/30 00:15:47;;;;;;;6.37;4.03;;;16.00;99.90;;;;;;5034075;28;20286;-68
2022/08/30 00:18:14;;;;;;;6.37;3.47;;;16.00;99.90;;;;;;5035071;28;20764;-67
2022/08/30 00:20:40;;;;;;;7.50;4.00;;;16.00;99.90;;;;;;5034863;28;20410;-67
2022/08/30 00:23:06;;;;;;;14.03;4.70;;;15.90;99.90;;;;;;5034323;28;20459;-68
2022/08/30 00:25:32;;;;;;;8.27;4.00;;;15.90;99.90;;;;;;5034712;28;20417;-68
2022/08/30 00:27:58;;;;;;;6.17;2.70;;;15.80;99.90;;;;;;5034936;28;20591;-68
2022/08/30 00:30:24;;;;;;;8.10;4.10;;;15.90;99.90;;;;;;5034786;28;21180;-68
2022/08/30 00:32:49;;;;;;;9.83;4.20;;;15.90;99.90;;;;;;5049928;22;20253;-68
2022/08/30 00:35:19;;;;;;;11.17;3.60;;;15.80;99.90;;;;;;5034678;28;20197;-67
2022/08/30 00:37:45;;;;;;;6.37;4.10;;;15.80;99.90;;;;;;5034675;28;20569;-68
2022/08/30 00:40:11;;;;;;;5.40;3.57;;;15.70;99.90;;;;;;5034652;28;20405;-68
2022/08/30 00:42:38;;;;;;;9.47;4.40;;;15.70;99.90;;;;;;5034025;28;20185;-68
2022/08/30 00:45:10;;;;;;;11.93;4.17;;;15.70;99.90;;;;;;5034488;28;20410;-68
2022/08/30 00:47:36;;;;;;;6.67;4.20;;;15.60;99.90;;;;;;5034366;28;20414;-67
2022/08/30 00:50:04;;;;;;;5.60;3.43;;;15.60;99.90;;;;;;5045918;28;20471;-68
2022/08/30 00:52:29;;;;;;;5.40;3.53;;;15.60;99.90;;;;;;5053840;28;20170;-67
2022/08/30 00:54:55;;;;;;;6.87;3.40;;;15.60;99.90;;;;;;5054271;28;20416;-68
2022/08/30 00:57:21;;;;;;;15.33;3.87;;;15.60;99.90;;;;;;5054086;28;20384;-68
2022/08/30 00:59:48;;;;;;;6.70;3.50;;;15.60;99.90;;;;;;5054265;28;20260;-68
2022/08/30 01:02:17;;;;;;;8.87;4.57;;;15.60;99.90;;;;;;5053633;28;20178;-67
2022/08/30 01:04:43;;;;;;;5.63;3.33;;;15.60;99.90;;;;;;5054207;28;20488;-68
2022/08/30 01:07:10;;;;;;;8.07;4.07;;;15.60;99.90;;;;;;5054150;28;20462;-67
2022/08/30 01:09:36;;;;;;;7.23;3.70;;;15.60;99.90;;;;;;5053987;28;20490;-68
2022/08/30 01:12:04;;;;;;;7.00;3.63;;;15.60;99.90;;;;;;5053826;28;20408;-68
2022/08/30 01:14:32;;;;;;;7.73;4.07;;;15.60;99.90;;;;;;5054152;28;20412;-68
2022/08/30 01:17:02;;;;;;;12.57;4.03;;;15.60;99.90;;;;;;5053896;28;20511;-67
2022/08/30 01:19:56;;;;;;;8.63;4.60;;;15.60;99.90;;;;;;5054062;28;20413;-68
2022/08/30 01:22:32;;;;;;;9.33;4.23;;;15.50;99.90;;;;;;5053490;28;20424;-67
2022/08/30 01:25:00;;;;;;;8.10;3.60;;;15.40;99.90;;;;;;5054013;28;20767;-68
2022/08/30 01:27:27;;;;;;;7.87;3.57;;;15.40;99.90;;;;;;5053586;28;20412;-67
2022/08/30 01:29:54;;;;;;;7.50;4.13;;;15.30;99.90;;;;;;5053602;28;20646;-67
2022/08/30 01:32:27;;;;;;;8.47;3.73;;;15.40;99.90;;;;;;5051849;28;20440;-68
2022/08/30 01:34:53;;;;;;;6.70;3.47;;;15.40;99.90;;;;;;5053730;28;20436;-68
2022/08/30 01:37:26;;;;;;;5.80;3.00;;;15.40;99.90;;;;;;5053350;28;20443;-67
2022/08/30 01:39:52;;;;;;;8.10;3.53;;;15.30;99.90;;;;;;5053379;28;20180;-67
2022/08/30 01:42:18;;;;;;;6.20;3.30;;;15.30;99.90;;;;;;5052768;28;20481;-67
2022/08/30 01:44:44;;;;;;;8.37;4.37;;;15.30;99.90;;;;;;5053270;28;21061;-66
2022/08/30 01:47:10;;;;;;;8.37;4.63;;;15.20;99.90;;;;;;5053130;28;20225;-66
2022/08/30 01:49:36;;;;;;;7.93;3.77;;;15.20;99.90;;;;;;5052956;28;20722;-66
2022/08/30 01:52:03;;;;;;;6.50;3.57;;;15.20;99.90;;;;;;5052551;28;20235;-67
2022/08/30 01:54:33;;;;;;;6.03;3.70;;;15.10;99.90;;;;;;5053114;28;20416;-67
2022/08/30 01:57:00;;;;;;;7.10;4.03;;;15.10;99.90;;;;;;5052947;28;20991;-67
2022/08/30 01:59:26;;;;;;;8.03;3.50;;;15.10;99.90;;;;;;5053193;28;20546;-66
2022/08/30 02:01:51;;;;;;;10.33;4.30;;;15.00;99.90;;;;;;5052511;28;20515;-66
2022/08/30 02:04:17;;;;;;;8.13;4.00;;;15.00;99.90;;;;;;5052801;28;20631;-66
2022/08/30 02:06:43;;;;;;;7.10;3.40;;;15.00;99.90;;;;;;5052963;28;20178;-66
2022/08/30 02:09:11;;;;;;;8.90;4.33;;;15.00;99.90;;;;;;5052760;28;20483;-67
2022/08/30 02:11:37;;;;;;;9.67;4.10;;;14.90;99.90;;;;;;5052160;28;20411;-67
2022/08/30 02:14:04;;;;;;;12.20;5.33;;;14.90;99.90;;;;;;5052628;28;21109;-67
2022/08/30 02:16:30;;;;;;;6.43;4.20;;;14.90;99.90;;;;;;5052711;28;20420;-67
2022/08/30 02:18:56;;;;;;;6.70;4.13;;;14.90;99.90;;;;;;5052640;28;20431;-67
2022/08/30 02:21:23;;;;;;;6.87;3.93;;;14.90;99.90;;;;;;5052106;28;20412;-67
2022/08/30 02:23:49;;;;;;;7.63;4.33;;;14.80;99.90;;;;;;5053112;28;20405;-67
2022/08/30 02:26:16;;;;;;;8.13;4.07;;;14.80;99.90;;;;;;5052762;28;20408;-67
2022/08/30 02:28:43;;;;;;;8.03;4.43;;;14.80;99.90;;;;;;5052892;28;20490;-67
2022/08/30 02:31:09;;;;;;;10.13;4.23;;;14.80;99.90;;;;;;5052641;28;20400;-67
2022/08/30 02:33:36;;;;;;;8.37;4.60;;;14.70;99.90;;;;;;5051296;28;20515;-67
2022/08/30 02:36:03;;;;;;;6.47;4.23;;;14.70;99.90;;;;;;5052517;28;20783;-67
2022/08/30 02:38:29;;;;;;;19.07;4.80;;;14.70;99.90;;;;;;5052148;28;20405;-67
2022/08/30 02:40:55;;;;;;;13.03;4.40;;;14.70;99.90;;;;;;5052623;28;20401;-67
2022/08/30 02:43:20;;;;;;;11.30;4.47;;;14.70;99.90;;;;;;5052409;28;20253;-67
2022/08/30 02:45:46;;;;;;;8.70;3.93;;;14.70;99.90;;;;;;5052673;28;20172;-67
2022/08/30 02:48:12;;;;;;;6.83;4.07;;;14.60;99.90;;;;;;5052607;28;20189;-67
2022/08/30 02:50:40;;;;;;;13.60;5.60;;;14.70;99.90;;;;;;5051853;28;20178;-67
2022/08/30 02:53:06;;;;;;;11.43;5.23;;;14.70;99.90;;;;;;5051540;28;20861;-67
2022/08/30 02:55:31;;;;;;;10.80;5.27;;;14.60;99.90;;;;;;5051848;28;20435;-67
2022/08/30 02:57:57;;;;;;;7.53;3.97;;;14.60;99.90;;;;;;5032809;28;20584;-67
2022/08/30 03:00:23;;;;;;;5.60;3.60;;;14.60;99.90;;;;;;5031970;28;20179;-68
2022/08/30 03:02:49;;;;;;;9.70;4.40;;;14.50;99.90;;;;;;5031422;28;20575;-68
2022/08/30 03:05:15;;;;;;;8.77;4.30;;;14.50;99.90;;;;;;5031623;28;20167;-67
2022/08/30 03:07:42;;;;;;;8.00;4.13;;;14.50;99.90;;;;;;5031975;28;20505;-68
2022/08/30 03:10:08;;;;;;;9.07;4.80;;;14.40;99.90;;;;;;5031674;28;20552;-68
2022/08/30 03:12:34;;;;;;;10.57;4.90;;;14.40;99.90;;;;;;5031077;28;20428;-67
2022/08/30 03:15:00;;;;;;;8.90;5.23;;;14.40;99.90;;;;;;5031467;28;20401;-67
2022/08/30 03:17:26;;;;;;;6.77;4.03;;;14.50;99.90;;;;;;5031800;28;20431;-67
2022/08/30 03:19:52;;;;;;;6.33;3.57;;;14.50;99.90;;;;;;5031686;28;20186;-68
2022/08/30 03:22:18;;;;;;;7.73;5.00;;;14.40;99.90;;;;;;5031328;28;20181;-69
2022/08/30 03:24:44;;;;;;;6.90;3.80;;;14.40;99.90;;;;;;5031439;28;20496;-68
2022/08/30 03:27:10;;;;;;;10.60;5.23;;;14.40;99.90;;;;;;5031348;28;20213;-68
2022/08/30 03:29:38;;;;;;;8.63;4.07;;;14.40;99.90;;;;;;5031251;28;20489;-67
2022/08/30 03:32:03;;;;;;;6.60;3.67;;;14.40;99.90;;;;;;5029903;28;20429;-67
2022/08/30 03:34:29;;;;;;;8.20;3.70;;;14.30;99.90;;;;;;5031205;28;20788;-67
2022/08/30 03:36:55;;;;;;;11.93;4.50;;;14.30;99.90;;;;;;5031272;28;20207;-67
2022/08/30 03:39:23;;;;;;;8.20;4.30;;;14.30;99.90;;;;;;5031150;28;20179;-68
2022/08/30 03:41:49;;;;;;;5.77;3.70;;;14.30;99.90;;;;;;5030957;28;20170;-67
2022/08/30 03:44:15;;;;;;;7.60;4.10;;;14.20;99.90;;;;;;5031041;28;20409;-67
2022/08/30 03:46:41;;;;;;;16.70;4.57;;;14.20;99.90;;;;;;5031195;28;20409;-67
2022/08/30 03:49:06;;;;;;;9.20;4.43;;;14.20;99.90;;;;;;5031038;28;20205;-67
2022/08/30 03:51:32;;;;;;;8.67;4.53;;;14.30;99.90;;;;;;5033653;28;20532;-67
2022/08/30 03:53:58;;;;;;;5.80;3.90;;;14.20;99.90;;;;;;5034807;28;20174;-67
2022/08/30 03:56:24;;;;;;;7.60;4.27;;;14.20;99.90;;;;;;5041119;28;20192;-68
2022/08/30 03:58:50;;;;;;;7.83;4.10;;;14.20;99.90;;;;;;5054342;28;20420;-67
2022/08/30 04:01:16;;;;;;;8.27;4.03;;;14.10;99.90;;;;;;5054199;28;21055;-67
2022/08/30 04:03:42;;;;;;;11.73;5.40;;;14.10;99.90;;;;;;5054629;28;20284;-67
2022/08/30 04:06:08;;;;;;;9.23;4.90;;;14.10;99.90;;;;;;5054608;28;20170;-67
2022/08/30 04:08:33;;;;;;;7.83;4.27;;;14.10;99.90;;;;;;5055042;28;20170;-67
2022/08/30 04:11:01;;;;;;;8.30;4.10;;;14.10;99.90;;;;;;5054778;28;20412;-67
2022/08/30 04:13:28;;;;;;;5.20;3.90;;;14.10;99.90;;;;;;5054557;28;20220;-68
2022/08/30 04:15:54;;;;;;;7.67;4.63;;;14.10;99.90;;;;;;5054747;28;20495;-67
2022/08/30 04:18:20;;;;;;;8.93;5.27;;;14.10;99.90;;;;;;5054372;28;20503;-67
2022/08/30 04:20:46;;;;;;;10.20;5.10;;;14.10;99.90;;;;;;5054438;28;20194;-67
2022/08/30 04:23:12;;;;;;;10.60;5.03;;;14.10;99.90;;;;;;5053568;28;20408;-67
2022/08/30 04:25:40;;;;;;;9.87;4.40;;;14.00;99.90;;;;;;5054138;28;20412;-67
2022/08/30 04:28:06;;;;;;;5.23;2.80;;;14.00;99.90;;;;;;5054067;28;20419;-67
2022/08/30 04:30:32;;;;;;;10.90;5.30;;;14.00;99.90;;;;;;5054219;28;20498;-67
2022/08/30 04:32:58;;;;;;;8.47;4.90;;;14.00;99.90;;;;;;5052868;28;20891;-67
2022/08/30 04:35:24;;;;;;;9.20;4.63;;;13.90;99.90;;;;;;5052859;28;20760;-67
2022/08/30 04:37:49;;;;;;;7.00;4.27;;;14.00;99.90;;;;;;5053780;28;20453;-68
2022/08/30 04:40:15;;;;;;;11.00;4.30;;;14.00;99.90;;;;;;5053903;28;20174;-69
2022/08/30 04:42:44;;;;;;;8.13;4.80;;;14.00;99.90;;;;;;5053850;28;20170;-68
2022/08/30 04:45:13;;;;;;;9.83;5.30;;;14.00;99.90;;;;;;5054407;28;20635;-67
2022/08/30 04:47:40;;;;;;;8.20;4.57;;;14.00;99.90;;;;;;5054613;28;20511;-67
2022/08/30 04:50:08;;;;;;;9.23;4.60;;;14.00;99.90;;;;;;5054061;28;20948;-67
2022/08/30 04:52:34;;;;;;;7.90;5.00;;;14.00;99.90;;;;;;5053523;28;20523;-67
2022/08/30 04:55:00;;;;;;;9.17;4.90;;;14.00;99.90;;;;;;5054347;28;20495;-67
2022/08/30 04:57:27;;;;;;;8.17;4.73;;;14.00;99.90;;;;;;5053875;28;20181;-67
2022/08/30 04:59:53;;;;;;;9.13;5.20;;;14.00;99.90;;;;;;5053845;28;20178;-68
2022/08/30 05:02:19;;;;;;;7.80;4.53;;;14.00;99.90;;;;;;5053146;28;20423;-67
2022/08/30 05:07:34;;;;;;;5.80;4.03;;;14.00;99.90;;;;;;5043295;28;20889;-68
2022/08/30 05:10:00;;;;;;;10.50;4.60;;;14.00;99.90;;;;;;5053384;28;20951;-68
2022/08/30 05:12:26;;;;;;;10.07;4.83;;;14.10;99.90;;;;;;5053310;28;20458;-68
2022/08/30 05:14:52;;;;;;;8.27;5.13;;;14.10;99.90;;;;;;5053384;28;20176;-67
2022/08/30 05:17:17;;;;;;;8.20;4.13;;;14.20;99.90;;;;;;5053370;28;20499;-68
2022/08/30 05:19:43;;;;;;;8.07;4.30;;;14.20;99.90;;;;;;5053346;28;20209;-68
2022/08/30 05:22:09;;;;;;;8.13;4.57;;;14.30;99.90;;;;;;5053167;28;20232;-68
2022/08/30 05:24:35;;;;;;;6.50;3.93;;;14.30;99.90;;;;;;5053138;28;20211;-68
2022/08/30 05:27:01;;;;;;;9.30;3.70;;;14.40;99.90;;;;;;5053309;28;20640;-67
2022/08/30 05:29:26;;;;;;;15.13;5.33;;;14.40;99.90;;;;;;5052791;28;20231;-68
2022/08/30 05:31:52;;;;;;;7.43;4.53;;;14.40;99.90;;;;;;5051970;28;20413;-67
2022/08/30 05:34:19;;;;;;;6.70;4.60;;;14.50;99.90;;;;;;5052962;28;20201;-67
2022/08/30 05:36:45;;;;;;;14.57;4.80;;;14.50;99.90;;;;;;5053108;28;20174;-68
2022/08/30 05:39:11;;;;;;;13.20;5.47;;;14.60;99.90;;;;;;5052707;28;20512;-66
2022/08/30 05:41:37;;;;;;;12.43;6.00;;;14.60;99.90;;;;;;5052668;28;20504;-67
2022/08/30 05:44:05;;;;;;;13.57;5.83;;;14.70;99.90;;;;;;5053120;28;20474;-67
2022/08/30 05:46:34;;;;;;;9.10;5.17;;;14.70;99.90;;;;;;5053627;28;20287;-66
2022/08/30 05:49:01;;;;;;;8.67;4.50;;;14.80;99.90;;;;;;5053278;28;20542;-66
2022/08/30 05:51:28;;;;;;;8.47;4.67;;;14.80;99.90;;;;;;5052681;28;20901;-66
2022/08/30 05:53:56;;;;;;;13.10;4.70;;;14.90;99.90;;;;;;5054557;28;20462;-66
2022/08/30 05:56:29;;;;;;;7.83;4.97;;;15.00;99.90;;;;;;5055908;28;20413;-66
2022/08/30 05:58:55;;;;;;;8.50;4.83;;;15.00;99.90;;;;;;5055146;28;20503;-66
2022/08/30 06:01:28;;;;;;;8.47;3.50;;;15.10;99.90;;;;;;5055142;28;20506;-65
2022/08/30 06:03:57;;;;;;;9.97;4.40;;;15.20;99.90;;;;;;5067818;28;20432;-66
2022/08/30 06:06:23;;;;;;;13.20;5.40;;;15.30;99.90;;;;;;5076935;28;20421;-66
2022/08/30 06:08:49;;;;;;;11.70;4.47;;;15.30;99.90;;;;;;5077290;28;20440;-66
2022/08/30 06:11:18;;;;;;;8.47;4.50;;;15.40;99.90;;;;;;5078022;28;20412;-66
2022/08/30 06:13:45;;;;;;;10.50;5.70;;;15.50;99.90;;;;;;5077726;28;20447;-66
2022/08/30 06:16:12;;;;;;;7.47;4.50;;;15.60;99.90;;;;;;5078456;28;20538;-66
2022/08/30 06:18:38;;;;;;;7.70;4.67;;;15.70;99.90;;;;;;5078713;28;20426;-66
2022/08/30 06:21:04;;;;;;;9.20;4.47;;;15.80;99.90;;;;;;5056510;28;20420;-66
2022/08/30 06:23:30;;;;;;;15.10;5.00;;;15.90;99.90;;;;;;5054359;28;20173;-66
2022/08/30 06:25:56;;;;;;;7.07;4.17;;;16.00;99.90;;;;;;5053550;28;20500;-66
2022/08/30 06:28:22;;;;;;;12.40;5.00;;;16.10;99.90;;;;;;5052463;28;20186;-67
2022/08/30 06:30:47;;;;;;;14.63;6.43;;;16.10;99.90;;;;;;5052049;28;20463;-67
2022/08/30 06:33:13;;;;;;;12.57;5.83;;;16.20;99.90;;;;;;5051340;28;20424;-67
2022/08/30 06:35:39;;;;;;;8.20;4.63;;;16.30;99.90;;;;;;5051772;28;20180;-67
2022/08/30 06:38:05;;;;;;;11.97;6.30;;;16.40;99.90;;;;;;5051891;28;20217;-67
2022/08/30 06:40:30;;;;;;;11.40;6.10;;;16.50;99.90;;;;;;5051738;28;20290;-67
2022/08/30 06:42:56;;;;;;;8.70;5.30;;;16.70;99.90;;;;;;5051451;28;20323;-67
2022/08/30 06:45:21;;;;;;;10.63;5.13;;;16.90;99.90;;;;;;5051723;28;20178;-67
2022/08/30 06:47:48;;;;;;;15.10;6.57;;;17.10;99.90;;;;;;5050479;28;20182;-67
2022/08/30 06:50:15;;;;;;;14.73;5.90;;;17.30;99.90;;;;;;5051516;28;20201;-67
2022/08/30 06:52:43;;;;;;;12.70;5.70;;;17.50;99.90;;;;;;5051273;28;20808;-67
2022/08/30 06:55:13;;;;;;;11.37;5.03;;;17.70;99.90;;;;;;5051461;28;20404;-68
2022/08/30 06:57:39;;;;;;;9.70;5.43;;;18.00;99.90;;;;;;5051382;28;20747;-67
2022/08/30 07:00:09;;;;;;;9.07;5.30;;;18.20;99.90;;;;;;5051566;28;20503;-67
2022/08/30 07:02:38;;;;;;;15.93;5.73;;;18.40;99.90;;;;;;5051315;28;20197;-68
2022/08/30 07:05:06;;;;;;;13.73;5.63;;;18.70;99.90;;;;;;5051651;28;20420;-68
2022/08/30 07:07:32;;;;;;;7.70;4.90;;;19.00;99.90;;;;;;5051507;28;20856;-68
2022/08/30 07:10:00;;;;;;;8.53;4.80;;;19.30;99.90;;;;;;5051201;28;20466;-68
2022/08/30 07:12:25;;;;;;;7.03;3.97;;;19.60;99.90;;;;;;5051114;28;20169;-67
2022/08/30 07:14:51;;;;;;;6.33;3.43;;;20.20;99.90;;;;;;5051467;28;20451;-68
2022/08/30 07:20:04;;;;;;;10.23;4.30;;;21.30;99.90;;;;;;5051584;28;20269;-68
2022/08/30 07:22:31;;;;;;;7.20;3.80;;;21.90;99.90;;;;;;5050811;28;20409;-68
2022/08/30 07:24:56;;;;;;;8.20;4.20;;;22.40;99.80;;;;;;5054016;28;20483;-69
2022/08/30 07:27:22;;;;;;;6.13;3.90;;;22.90;98.40;;;;;;5055649;28;20407;-68
2022/08/30 07:29:48;;;;;;;9.20;3.60;;;23.40;97.50;;;;;;5055601;28;20201;-68
2022/08/30 07:32:14;;;;;;;6.73;4.10;;;23.90;96.40;;;;;;5054166;28;20182;-68
2022/08/30 07:34:40;;;;;;;7.77;4.37;;;24.40;95.10;;;;;;5055461;28;20808;-69
2022/08/30 07:37:06;;;;;;;7.60;4.40;;;24.80;94.60;;;;;;5055383;28;20170;-68
2022/08/30 07:39:31;;;;;;;7.93;3.93;;;25.10;93.50;;;;;;5055394;28;20458;-68
2022/08/30 07:41:57;;;;;;;6.60;3.77;;;25.10;93.00;;;;;;5054583;28;20184;-68
2022/08/30 07:44:22;;;;;;;8.30;3.93;;;25.50;92.30;;;;;;5054956;28;20174;-68
2022/08/30 07:46:48;;;;;;;7.43;4.73;;;25.80;91.80;;;;;;5055248;28;20544;-68
2022/08/30 07:49:14;;;;;;;6.17;3.57;;;25.60;92.00;;;;;;5055188;28;20296;-69
2022/08/30 07:51:40;;;;;;;7.10;3.63;;;25.30;91.80;;;;;;5054554;28;20170;-69
2022/08/30 07:54:06;;;;;;;7.17;3.73;;;25.30;92.20;;;;;;5055050;28;20949;-69
2022/08/30 07:56:31;;;;;;;7.00;3.83;;;25.20;92.10;;;;;;5054666;28;20174;-69
2022/08/30 07:58:57;;;;;;;15.50;4.27;;;25.00;92.10;;;;;;5054860;28;20196;-69
2022/08/30 08:01:23;;;;;;;5.60;3.37;;;24.80;92.80;;;;;;5054662;28;20174;-70
2022/08/30 08:03:49;;;;;;;6.07;3.37;;;24.80;92.50;;;;;;5054968;28;20622;-69
2022/08/30 08:06:17;;;;;;;9.20;4.20;;;24.60;92.50;;;;;;5054673;28;20657;-69
2022/08/30 08:08:44;;;;;;;10.00;4.10;;;24.60;92.80;;;;;;5055010;28;20420;-69
2022/08/30 08:11:19;;;;;;;10.77;4.10;;;24.80;92.60;;;;;;5054208;28;20486;-69
2022/08/30 08:13:46;;;;;;;11.17;3.63;;;25.50;92.00;;;;;;5054867;28;20418;-69
2022/08/30 08:16:12;;;;;;;11.33;4.20;;;26.30;90.50;;;;;;5054434;28;20415;-69
2022/08/30 08:18:38;;;;;;;5.57;3.90;;;26.60;88.80;;;;;;5054574;28;20404;-68
2022/08/30 08:21:04;;;;;;;7.83;4.03;;;26.80;88.30;;;;;;5054099;28;20275;-69
2022/08/30 08:23:30;;;;;;;6.50;3.80;;;27.00;87.80;;;;;;5054806;28;20623;-69
2022/08/30 08:25:56;;;;;;;17.67;4.43;;;27.40;86.00;;;;;;5054570;28;20179;-69
2022/08/30 08:28:22;;;;;;;5.90;3.58;;;27.60;85.20;;;;;;5054520;28;20161;-69
2022/08/30 08:30:49;;;;;;;4.22;2.78;;;27.00;88.00;;;;;;5054563;28;20576;-69
2022/08/30 08:33:15;;;;;;;8.65;3.67;;;27.50;87.90;;;;;;5053670;28;20212;-69
2022/08/30 08:35:41;;;;;;;7.03;3.95;;;28.30;84.80;;;;;;5053577;28;20179;-70
2022/08/30 08:38:07;;;;;;;6.22;3.38;;;28.70;82.80;;;;;;5054106;28;20180;-69
2022/08/30 08:40:42;;;;;;;6.65;3.42;;;28.30;83.30;;;;;;5054268;28;20177;-69
2022/08/30 08:43:14;;;;;;;7.47;3.67;;;27.80;83.70;;;;;;5053623;28;20172;-69
2022/08/30 08:45:46;;;;;;;6.00;3.47;;;27.10;86.20;;;;;;5054843;28;20174;-69
2022/08/30 08:48:24;;;;;;;6.88;3.28;;;27.20;86.30;;;;;;5054695;28;20650;-69
2022/08/30 08:53:36;;;;;;;4.97;3.45;;;28.10;83.50;;;;;;5054671;28;20208;-69
2022/08/30 08:56:15;;;;;;;7.10;3.75;;;28.00;83.80;;;;;;5054618;28;20555;-69
2022/08/30 08:58:47;;;;;;;7.30;3.90;;;28.00;83.80;;;;;;5054394;28;20169;-69
2022/08/30 09:01:15;;;;;;;4.93;2.83;;;28.00;83.70;;;;;;5053917;28;20844;-70
2022/08/30 09:03:41;;;;;;;6.43;3.13;;;28.30;82.90;;;;;;5054368;28;20619;-69
2022/08/30 09:06:44;;;;;;;7.10;2.80;;;28.00;84.50;;;;;;5054136;28;20170;-69
2022/08/30 09:09:09;;;;;;;6.43;2.78;;;28.30;81.90;;;;;;5052826;28;20209;-69
2022/08/30 09:11:38;;;;;;;6.32;3.50;;;28.30;81.70;;;;;;5053541;28;20235;-70
2022/08/30 09:14:11;;;;;;;7.80;3.75;;;28.10;82.30;;;;;;5053889;28;20181;-69
2022/08/30 09:17:05;;;;;;;6.25;3.65;;;28.10;81.30;;;;;;5054005;28;20246;-68
2022/08/30 09:19:36;;;;;;;5.07;3.00;;;27.50;84.60;;;;;;5053913;28;20201;-69
2022/08/30 09:22:15;;;;;;;6.57;3.13;;;28.00;83.10;;;;;;5053283;28;20173;-70
2022/08/30 09:24:45;;;;;;;4.53;2.78;;;28.20;82.20;;;;;;5053872;28;20267;-69
2022/08/30 09:27:29;;;;;;;8.93;3.83;;;28.20;82.80;;;;;;5053609;28;20178;-69
2022/08/30 09:30:02;;;;;;;9.40;3.05;;;28.80;80.20;;;;;;5053498;28;20799;-69
2022/08/30 09:32:42;;;;;;;6.88;3.05;;;28.10;82.80;;;;;;5052419;28;20216;-69
2022/08/30 09:35:17;;;;;;;4.68;3.22;;;28.30;82.20;;;;;;5053805;28;20171;-70
2022/08/30 09:38:03;;;;;;;12.32;2.95;;;28.40;82.20;;;;;;5053542;28;20276;-70
2022/08/30 09:40:44;;;;;;;15.43;3.15;;;28.60;80.20;;;;;;5053330;28;20492;-69
2022/08/30 09:43:15;;;;;;;4.85;2.55;;;28.50;78.90;;;;;;5052837;28;20177;-69
2022/08/30 09:45:47;;;;;;;6.40;2.92;;;28.60;76.90;;;;;;5053342;28;20188;-69
2022/08/30 09:48:32;;;;;;;4.95;2.80;;;28.80;74.90;;;;;;5052263;28;20169;-69
2022/08/30 09:50:57;;;;;;;8.00;3.13;;;29.10;75.90;;;;;;5053038;28;20184;-70
2022/08/30 09:53:30;;;;;;;13.05;3.35;;;28.60;78.00;;;;;;5053122;28;20173;-69
2022/08/30 09:56:19;;;;;;;4.72;3.13;;;28.20;77.70;;;;;;5053266;28;20181;-69
2022/08/30 09:59:28;;;;;;;5.10;3.20;;;28.30;77.90;;;;;;5052866;28;20165;-69
2022/08/30 10:02:05;;;;;;;6.32;2.90;;;27.40;79.90;;;;;;5052109;28;20360;-69
2022/08/30 10:04:43;;;;;;;6.30;2.65;;;27.60;80.20;;;;;;5053159;28;20539;-68
2022/08/30 10:07:26;;;;;;;4.63;2.92;;;27.20;79.30;;;;;;5052886;28;20200;-69
2022/08/30 10:10:20;;;;;;;6.40;3.43;;;27.20;80.10;;;;;;5053034;28;20200;-69
2022/08/30 10:13:23;;;;;;;6.80;2.80;;;27.10;80.00;;;;;;5049558;28;20193;-69
2022/08/30 10:15:57;;;;;;;4.60;2.83;;;27.20;79.60;;;;;;5052709;28;20251;-69
2022/08/30 10:18:42;;;;;;;4.40;2.80;;;27.30;80.10;;;;;;5052716;28;20264;-69
2022/08/30 10:21:33;;;;;;;6.27;3.27;;;27.30;80.60;;;;;;5052634;28;20165;-68
2022/08/30 10:24:06;;;;;;;4.77;2.70;;;27.30;79.90;;;;;;5052603;28;20185;-69
2022/08/30 10:26:35;;;;;;;3.60;2.40;;;27.30;79.50;;;;;;5052972;28;20450;-69
2022/08/30 10:29:06;;;;;;;6.83;3.20;;;27.30;80.70;;;;;;5052618;28;20577;-68
2022/08/30 10:31:45;;;;;;;7.83;2.77;;;27.10;80.00;;;;;;5052298;28;20922;-69
2022/08/30 10:34:20;;;;;;;4.60;2.70;;;27.10;81.30;;;;;;5052579;28;20514;-69
2022/08/30 10:36:53;;;;;;;5.33;2.83;;;27.30;80.60;;;;;;5052826;28;20359;-69
2022/08/30 10:39:24;;;;;;;4.03;2.70;;;27.30;80.30;;;;;;5052438;28;20278;-69
2022/08/30 10:41:58;;;;;;;4.30;2.37;;;27.60;78.70;;;;;;5052058;28;20646;-69
2022/08/30 10:44:29;;;;;;;6.03;2.80;;;27.50;79.10;;;;;;5052471;28;20169;-68
2022/08/30 10:47:42;;;;;;;3.60;2.00;;;27.60;78.40;;;;;;5052440;28;20169;-69
2022/08/30 10:50:40;;;;;;;6.70;2.70;;;27.50;76.30;;;;;;5017439;28;20256;-69
2022/08/30 10:53:35;;;;;;;6.37;2.67;;;27.60;74.80;;;;;;4994266;28;20262;-69
2022/08/30 10:56:08;;;;;;;8.43;2.50;;;27.60;75.00;;;;;;5031212;28;20189;-69
2022/08/30 10:58:38;;;;;;;3.33;2.10;;;27.70;76.80;;;;;;5052005;28;20435;-69
2022/08/30 11:01:28;;;;;;;4.47;2.30;;;27.70;76.10;;;;;;5051619;28;20174;-68
2022/08/30 11:04:05;;;;;;;7.53;3.70;;;28.00;76.20;;;;;;5052006;28;20172;-69
2022/08/30 11:06:45;;;;;;;3.80;2.43;;;28.10;75.00;;;;;;5052181;28;20168;-69
2022/08/30 11:09:47;;;;;;;6.47;2.60;;;28.10;73.30;;;;;;5051993;28;20205;-69
2022/08/30 11:12:24;;;;;;;3.77;2.17;;;28.10;70.70;;;;;;5051647;28;20180;-70
2022/08/30 11:14:51;;;;;;;8.63;3.00;;;28.00;72.30;;;;;;5052037;28;20174;-69
2022/08/30 11:17:58;;;;;;;4.10;2.00;;;27.90;74.30;;;;;;5051956;28;20169;-69
2022/08/30 11:20:38;;;;;;;6.50;3.23;;;27.70;74.50;;;;;;5050931;28;20192;-69
2022/08/30 11:23:31;;;;;;;6.80;2.17;;;27.70;74.40;;;;;;5051565;28;20523;-69
2022/08/30 11:26:01;;;;;;;5.23;3.40;;;27.60;74.10;;;;;;5051958;28;20170;-69
2022/08/30 11:28:56;;;;;;;3.73;2.27;;;27.40;72.60;;;;;;5051944;28;20200;-69
2022/08/30 11:31:22;;;;;;;4.00;2.00;;;27.10;73.90;;;;;;5050385;28;20193;-69
2022/08/30 11:33:50;;;;;;;7.20;3.40;;;27.20;74.20;;;;;;5051078;28;20235;-69
2022/08/30 11:36:28;;;;;;;5.93;2.30;;;27.20;73.90;;;;;;5052101;28;20181;-69
2022/08/30 11:38:53;;;;;;;3.70;2.43;;;27.10;74.30;;;;;;5051730;28;20568;-69
2022/08/30 11:41:30;;;;;;;4.73;2.40;;;27.20;72.10;;;;;;5051384;28;20231;-69
2022/08/30 11:44:12;;;;;;;2.83;2.10;;;27.40;72.00;;;;;;5052016;28;20226;-69
2022/08/30 11:46:40;;;;;;;3.50;1.90;;;27.60;70.70;;;;;;5051859;28;20180;-69
2022/08/30 11:49:12;;;;;;;3.80;2.17;;;27.80;69.30;;;;;;5051680;28;20272;-69
2022/08/30 11:52:15;;;;;;;4.20;2.90;;;27.80;69.70;;;;;;5051450;28;20570;-69
2022/08/30 11:55:20;;;;;;;4.43;2.53;;;27.70;72.70;;;;;;5051887;28;20283;-69
2022/08/30 11:57:47;;;;;;;4.43;2.33;;;27.70;71.90;;;;;;5032105;28;20193;-69
2022/08/30 12:00:31;;;;;;;5.63;3.17;;;27.70;72.40;;;;;;5051813;28;20165;-69
2022/08/30 12:03:04;;;;;;;6.13;2.67;;;27.70;72.40;;;;;;5050559;28;20663;-69
2022/08/30 12:05:38;;;;;;;6.20;2.70;;;27.70;71.80;;;;;;5051901;28;20487;-69
2022/08/30 12:08:19;;;;;;;5.80;2.97;;;27.60;72.00;;;;;;5051695;28;20621;-69
2022/08/30 12:10:47;;;;;;;4.30;2.03;;;27.50;72.50;;;;;;5051906;28;20204;-69
2022/08/30 12:13:37;;;;;;;4.70;2.53;;;27.30;72.60;;;;;;5054732;28;20230;-68
2022/08/30 12:16:07;;;;;;;3.80;2.60;;;27.50;72.40;;;;;;5055368;28;20174;-69
2022/08/30 12:18:58;;;;;;;8.57;3.13;;;27.50;71.80;;;;;;5054786;28;20215;-69
2022/08/30 12:21:30;;;;;;;4.00;2.37;;;27.70;71.00;;;;;;5054589;28;20180;-68
2022/08/30 12:24:17;;;;;;;4.37;2.60;;;27.60;71.90;;;;;;5054892;28;20642;-69
2022/08/30 12:26:46;;;;;;;5.40;2.97;;;27.20;73.90;;;;;;5055254;28;20795;-69
2022/08/30 12:29:26;;;;;;;4.67;2.80;;;27.30;74.10;;;;;;5054829;28;20590;-69
2022/08/30 12:31:57;;;;;;;4.00;2.30;;;27.40;72.90;;;;;;5053817;28;20169;-69
2022/08/30 12:34:28;;;;;;;4.80;2.90;;;27.40;73.50;;;;;;5054915;28;20234;-68
2022/08/30 12:37:02;;;;;;;4.73;2.23;;;27.20;74.10;;;;;;5054981;28;20179;-69
2022/08/30 12:39:30;;;;;;;6.27;3.30;;;27.30;73.70;;;;;;5054492;28;20453;-69
2022/08/30 12:42:15;;;;;;;4.33;2.53;;;27.50;74.20;;;;;;5054346;28;20196;-69
2022/08/30 12:44:41;;;;;;;4.63;2.53;;;27.80;73.00;;;;;;5054635;28;20771;-69
2022/08/30 12:47:11;;;;;;;3.87;2.17;;;28.20;72.60;;;;;;5054638;28;20188;-69
2022/08/30 12:49:39;;;;;;;3.93;2.53;;;28.60;71.10;;;;;;5054199;28;20185;-68
2022/08/30 12:52:30;;;;;;;8.73;2.45;;;28.80;70.10;;;;;;5053911;28;20161;-69
2022/08/30 12:55:10;;;;;;;3.80;2.40;;;28.60;69.70;;;;;;5054305;28;20200;-68
2022/08/30 12:57:43;;;;;;;7.00;2.87;;;28.20;70.90;;;;;;5054527;28;20182;-68
2022/08/30 13:00:30;;;;;;;7.53;3.07;;;28.00;70.90;;;;;;5054195;28;20204;-69
2022/08/30 13:03:02;;;;;;;7.30;3.33;;;28.10;70.60;;;;;;5053431;28;20188;-68
2022/08/30 13:05:41;;;;;;;6.00;2.50;;;28.10;72.10;;;;;;5054115;28;20185;-69
2022/08/30 13:08:24;;;;;;;5.13;2.10;;;28.30;71.10;;;;;;5054498;28;20169;-69
2022/08/30 13:11:04;;;;;;;5.07;2.10;;;28.60;70.80;;;;;;5054342;28;20215;-69